sensor_id;sensor_type;location;lat;lon;timestamp;temperature;humidity
19363;DHT22;9817;50.80926400;5.16316200;2023-10-08T00:01:03;17.30;99.90
19363;DHT22;9817;50.80926400;5.16316200;2023-10-08T00:03:29;17.30;99.90
19363;DHT22;9817;50.80926400;5.16316200;2023-10-08T00:05:55;17.20;99.90
19363;DHT22;9817;50.80926400;5.16316200;2023-10-08T00:08:22;17.20;99.90
19363;DHT22;9817;50.80926400;5.16316200;2023-10-08T00:10:48;17.30;99.90
19363;DHT22;9817;50.80926400;5.16316200;2023-10-08T00:13:15;17.30;99.90
19363;DHT22;9817;50.80926400;5.16316200;2023-10-08T00:15:44;17.30;99.90
19363;DHT22;9817;50.80926400;5.16316200;2023-10-08T00:18:20;17.40;99.90
19363;DHT22;9817;50.80926400;5.16316200;2023-10-08T00:20:46;17.50;99.90
19363;DHT22;9817;50.80926400;5.16316200;2023-10-08T00:23:35;17.50;99.90
19363;DHT22;9817;50.80926400;5.16316200;2023-10-08T00:26:01;17.40;99.90
19363;DHT22;9817;50.80926400;5.16316200;2023-10-08T00:28:30;17.40;99.90
19363;DHT22;9817;50.80926400;5.16316200;2023-10-08T00:30:57;17.40;99.90
19363;DHT22;9817;50.80926400;5.16316200;2023-10-08T00:33:23;17.40;99.90
19363;DHT22;9817;50.80926400;5.16316200;2023-10-08T00:35:49;17.40;99.90
19363;DHT22;9817;50.80926400;5.16316200;2023-10-08T00:38:15;17.20;99.90
19363;DHT22;9817;50.80926400;5.16316200;2023-10-08T00:40:43;17.20;99.90
19363;DHT22;9817;50.80926400;5.16316200;2023-10-08T00:43:32;17.20;99.90
19363;DHT22;9817;50.80926400;5.16316200;2023-10-08T00:45:59;17.30;99.90
19363;DHT22;9817;50.80926400;5.16316200;2023-10-08T00:48:29;17.20;99.90
19363;DHT22;9817;50.80926400;5.16316200;2023-10-08T00:51:04;17.00;99.90
19363;DHT22;9817;50.80926400;5.16316200;2023-10-08T00:53:55;17.00;99.90
19363;DHT22;9817;50.80926400;5.16316200;2023-10-08T00:56:29;17.00;99.90
19363;DHT22;9817;50.80926400;5.16316200;2023-10-08T00:59:33;17.00;99.90
19363;DHT22;9817;50.80926400;5.16316200;2023-10-08T01:02:11;16.90;99.90
19363;DHT22;9817;50.80926400;5.16316200;2023-10-08T01:04:45;16.80;99.90
19363;DHT22;9817;50.80926400;5.16316200;2023-10-08T01:07:12;16.80;99.90
19363;DHT22;9817;50.80926400;5.16316200;2023-10-08T01:09:42;16.70;99.90
19363;DHT22;9817;50.80926400;5.16316200;2023-10-08T01:12:13;16.70;99.90
19363;DHT22;9817;50.80926400;5.16316200;2023-10-08T01:14:54;16.60;99.90
19363;DHT22;9817;50.80926400;5.16316200;2023-10-08T01:17:21;16.50;99.90
19363;DHT22;9817;50.80926400;5.16316200;2023-10-08T01:19:51;16.50;99.90
19363;DHT22;9817;50.80926400;5.16316200;2023-10-08T01:22:22;16.60;99.90
19363;DHT22;9817;50.80926400;5.16316200;2023-10-08T01:24:51;16.70;99.90
19363;DHT22;9817;50.80926400;5.16316200;2023-10-08T01:27:19;16.70;99.90
19363;DHT22;9817;50.80926400;5.16316200;2023-10-08T01:29:53;16.70;99.90
19363;DHT22;9817;50.80926400;5.16316200;2023-10-08T01:32:20;16.50;99.90
19363;DHT22;9817;50.80926400;5.16316200;2023-10-08T01:34:48;16.40;99.90
19363;DHT22;9817;50.80926400;5.16316200;2023-10-08T01:37:15;16.50;99.90
19363;DHT22;9817;50.80926400;5.16316200;2023-10-08T01:39:47;16.50;99.90
19363;DHT22;9817;50.80926400;5.16316200;2023-10-08T01:42:16;16.50;99.90
19363;DHT22;9817;50.80926400;5.16316200;2023-10-08T01:44:49;16.50;99.90
19363;DHT22;9817;50.80926400;5.16316200;2023-10-08T01:47:16;16.40;99.90
19363;DHT22;9817;50.80926400;5.16316200;2023-10-08T01:49:45;16.40;99.90
19363;DHT22;9817;50.80926400;5.16316200;2023-10-08T01:52:14;16.50;99.90
19363;DHT22;9817;50.80926400;5.16316200;2023-10-08T01:54:50;16.50;99.90
19363;DHT22;9817;50.80926400;5.16316200;2023-10-08T01:57:18;16.50;99.90
19363;DHT22;9817;50.80926400;5.16316200;2023-10-08T01:59:44;16.40;99.90
19363;DHT22;9817;50.80926400;5.16316200;2023-10-08T02:02:11;16.30;99.90
19363;DHT22;9817;50.80926400;5.16316200;2023-10-08T02:04:38;16.30;99.90
19363;DHT22;9817;50.80926400;5.16316200;2023-10-08T02:07:04;16.20;99.90
19363;DHT22;9817;50.80926400;5.16316200;2023-10-08T02:09:32;16.20;99.90
19363;DHT22;9817;50.80926400;5.16316200;2023-10-08T02:11:58;16.10;99.90
19363;DHT22;9817;50.80926400;5.16316200;2023-10-08T02:14:24;16.20;99.90
19363;DHT22;9817;50.80926400;5.16316200;2023-10-08T02:16:51;16.20;99.90
19363;DHT22;9817;50.80926400;5.16316200;2023-10-08T02:19:22;16.20;99.90
19363;DHT22;9817;50.80926400;5.16316200;2023-10-08T02:21:53;16.10;99.90
19363;DHT22;9817;50.80926400;5.16316200;2023-10-08T02:24:20;16.20;99.90
19363;DHT22;9817;50.80926400;5.16316200;2023-10-08T02:26:47;16.20;99.90
19363;DHT22;9817;50.80926400;5.16316200;2023-10-08T02:29:13;16.20;99.90
19363;DHT22;9817;50.80926400;5.16316200;2023-10-08T02:31:39;16.30;99.90
19363;DHT22;9817;50.80926400;5.16316200;2023-10-08T02:34:06;16.30;99.90
19363;DHT22;9817;50.80926400;5.16316200;2023-10-08T02:36:39;16.30;99.90
19363;DHT22;9817;50.80926400;5.16316200;2023-10-08T02:39:08;16.20;99.90
19363;DHT22;9817;50.80926400;5.16316200;2023-10-08T02:41:44;16.20;99.90
19363;DHT22;9817;50.80926400;5.16316200;2023-10-08T02:44:13;16.20;99.90
19363;DHT22;9817;50.80926400;5.16316200;2023-10-08T02:46:46;16.20;99.90
19363;DHT22;9817;50.80926400;5.16316200;2023-10-08T02:49:16;16.10;99.90
19363;DHT22;9817;50.80926400;5.16316200;2023-10-08T02:51:52;16.10;99.90
19363;DHT22;9817;50.80926400;5.16316200;2023-10-08T02:54:19;16.10;99.90
19363;DHT22;9817;50.80926400;5.16316200;2023-10-08T02:56:58;16.10;99.90
19363;DHT22;9817;50.80926400;5.16316200;2023-10-08T02:59:31;16.10;99.90
19363;DHT22;9817;50.80926400;5.16316200;2023-10-08T03:02:11;16.10;99.90
19363;DHT22;9817;50.80926400;5.16316200;2023-10-08T03:04:54;16.20;99.90
19363;DHT22;9817;50.80926400;5.16316200;2023-10-08T03:07:20;16.20;99.90
19363;DHT22;9817;50.80926400;5.16316200;2023-10-08T03:09:57;16.30;99.90
19363;DHT22;9817;50.80926400;5.16316200;2023-10-08T03:12:31;16.30;99.90
19363;DHT22;9817;50.80926400;5.16316200;2023-10-08T03:14:58;16.40;99.90
19363;DHT22;9817;50.80926400;5.16316200;2023-10-08T03:17:38;16.40;99.90
19363;DHT22;9817;50.80926400;5.16316200;2023-10-08T03:20:17;16.30;99.90
19363;DHT22;9817;50.80926400;5.16316200;2023-10-08T03:23:06;16.30;99.90
19363;DHT22;9817;50.80926400;5.16316200;2023-10-08T03:25:41;16.20;99.90
19363;DHT22;9817;50.80926400;5.16316200;2023-10-08T03:28:11;16.20;99.90
19363;DHT22;9817;50.80926400;5.16316200;2023-10-08T03:30:38;16.30;99.90
19363;DHT22;9817;50.80926400;5.16316200;2023-10-08T03:33:13;16.40;99.90
19363;DHT22;9817;50.80926400;5.16316200;2023-10-08T03:35:48;16.40;99.90
19363;DHT22;9817;50.80926400;5.16316200;2023-10-08T03:38:14;16.50;99.90
19363;DHT22;9817;50.80926400;5.16316200;2023-10-08T03:41:09;16.50;99.90
19363;DHT22;9817;50.80926400;5.16316200;2023-10-08T03:43:44;16.50;99.90
19363;DHT22;9817;50.80926400;5.16316200;2023-10-08T03:46:20;16.60;99.90
19363;DHT22;9817;50.80926400;5.16316200;2023-10-08T03:48:47;16.50;99.90
19363;DHT22;9817;50.80926400;5.16316200;2023-10-08T03:51:16;16.50;99.90
19363;DHT22;9817;50.80926400;5.16316200;2023-10-08T03:53:45;16.50;99.90
19363;DHT22;9817;50.80926400;5.16316200;2023-10-08T03:56:25;16.40;99.90
19363;DHT22;9817;50.80926400;5.16316200;2023-10-08T03:58:51;16.40;99.90
19363;DHT22;9817;50.80926400;5.16316200;2023-10-08T04:01:21;16.30;99.90
19363;DHT22;9817;50.80926400;5.16316200;2023-10-08T04:03:47;16.30;99.90
19363;DHT22;9817;50.80926400;5.16316200;2023-10-08T04:06:23;16.30;99.90
19363;DHT22;9817;50.80926400;5.16316200;2023-10-08T04:08:54;16.30;99.90
19363;DHT22;9817;50.80926400;5.16316200;2023-10-08T04:11:36;16.20;99.90
19363;DHT22;9817;50.80926400;5.16316200;2023-10-08T04:14:04;16.10;99.90
19363;DHT22;9817;50.80926400;5.16316200;2023-10-08T04:16:33;16.10;99.90
19363;DHT22;9817;50.80926400;5.16316200;2023-10-08T04:19:06;16.10;99.90
19363;DHT22;9817;50.80926400;5.16316200;2023-10-08T04:21:32;16.00;99.90
19363;DHT22;9817;50.80926400;5.16316200;2023-10-08T04:24:00;16.00;99.90
19363;DHT22;9817;50.80926400;5.16316200;2023-10-08T04:26:29;16.10;99.90
19363;DHT22;9817;50.80926400;5.16316200;2023-10-08T04:28:58;16.10;99.90
19363;DHT22;9817;50.80926400;5.16316200;2023-10-08T04:31:27;16.10;99.90
19363;DHT22;9817;50.80926400;5.16316200;2023-10-08T04:34:07;16.00;99.90
19363;DHT22;9817;50.80926400;5.16316200;2023-10-08T04:36:45;16.00;99.90
19363;DHT22;9817;50.80926400;5.16316200;2023-10-08T04:39:15;15.90;99.90
19363;DHT22;9817;50.80926400;5.16316200;2023-10-08T04:41:47;15.90;99.90
19363;DHT22;9817;50.80926400;5.16316200;2023-10-08T04:44:17;15.80;99.90
19363;DHT22;9817;50.80926400;5.16316200;2023-10-08T04:46:44;15.70;99.90
19363;DHT22;9817;50.80926400;5.16316200;2023-10-08T04:49:16;15.70;99.90
19363;DHT22;9817;50.80926400;5.16316200;2023-10-08T04:51:55;15.70;99.90
19363;DHT22;9817;50.80926400;5.16316200;2023-10-08T04:54:25;15.70;99.90
19363;DHT22;9817;50.80926400;5.16316200;2023-10-08T04:57:01;15.50;99.90
19363;DHT22;9817;50.80926400;5.16316200;2023-10-08T04:59:30;15.30;99.90
19363;DHT22;9817;50.80926400;5.16316200;2023-10-08T05:02:05;15.40;99.90
19363;DHT22;9817;50.80926400;5.16316200;2023-10-08T05:04:52;15.40;99.90
19363;DHT22;9817;50.80926400;5.16316200;2023-10-08T05:07:21;15.40;99.90
19363;DHT22;9817;50.80926400;5.16316200;2023-10-08T05:10:06;15.40;99.90
19363;DHT22;9817;50.80926400;5.16316200;2023-10-08T05:12:32;15.40;99.90
19363;DHT22;9817;50.80926400;5.16316200;2023-10-08T05:14:59;15.30;99.90
19363;DHT22;9817;50.80926400;5.16316200;2023-10-08T05:17:44;15.20;99.90
19363;DHT22;9817;50.80926400;5.16316200;2023-10-08T05:20:20;15.10;99.90
19363;DHT22;9817;50.80926400;5.16316200;2023-10-08T05:23:11;15.10;99.90
19363;DHT22;9817;50.80926400;5.16316200;2023-10-08T05:25:58;15.10;99.90
19363;DHT22;9817;50.80926400;5.16316200;2023-10-08T05:28:38;15.00;99.90
19363;DHT22;9817;50.80926400;5.16316200;2023-10-08T05:31:22;15.00;99.90
19363;DHT22;9817;50.80926400;5.16316200;2023-10-08T05:34:15;15.10;99.90
19363;DHT22;9817;50.80926400;5.16316200;2023-10-08T05:36:58;15.10;99.90
19363;DHT22;9817;50.80926400;5.16316200;2023-10-08T05:39:29;15.10;99.90
19363;DHT22;9817;50.80926400;5.16316200;2023-10-08T05:42:09;15.10;99.90
19363;DHT22;9817;50.80926400;5.16316200;2023-10-08T05:44:44;15.20;99.90
19363;DHT22;9817;50.80926400;5.16316200;2023-10-08T05:47:32;15.20;99.90
19363;DHT22;9817;50.80926400;5.16316200;2023-10-08T05:49:59;15.20;99.90
19363;DHT22;9817;50.80926400;5.16316200;2023-10-08T05:52:43;15.10;99.90
19363;DHT22;9817;50.80926400;5.16316200;2023-10-08T05:55:25;15.00;99.90
19363;DHT22;9817;50.80926400;5.16316200;2023-10-08T05:58:00;15.00;99.90
19363;DHT22;9817;50.80926400;5.16316200;2023-10-08T06:00:46;15.00;99.90
19363;DHT22;9817;50.80926400;5.16316200;2023-10-08T06:03:31;15.00;99.90
19363;DHT22;9817;50.80926400;5.16316200;2023-10-08T06:06:08;15.00;99.90
19363;DHT22;9817;50.80926400;5.16316200;2023-10-08T06:08:40;15.10;99.90
19363;DHT22;9817;50.80926400;5.16316200;2023-10-08T06:11:18;15.20;99.90
19363;DHT22;9817;50.80926400;5.16316200;2023-10-08T06:14:07;15.10;99.90
19363;DHT22;9817;50.80926400;5.16316200;2023-10-08T06:16:43;15.10;99.90
19363;DHT22;9817;50.80926400;5.16316200;2023-10-08T06:19:13;15.10;99.90
19363;DHT22;9817;50.80926400;5.16316200;2023-10-08T06:21:41;15.10;99.90
19363;DHT22;9817;50.80926400;5.16316200;2023-10-08T06:24:10;15.10;99.90
19363;DHT22;9817;50.80926400;5.16316200;2023-10-08T06:26:42;15.20;99.90
19363;DHT22;9817;50.80926400;5.16316200;2023-10-08T06:29:10;15.30;99.90
19363;DHT22;9817;50.80926400;5.16316200;2023-10-08T06:31:45;15.40;99.90
19363;DHT22;9817;50.80926400;5.16316200;2023-10-08T06:34:17;15.40;99.90
19363;DHT22;9817;50.80926400;5.16316200;2023-10-08T06:36:47;15.40;99.90
19363;DHT22;9817;50.80926400;5.16316200;2023-10-08T06:39:13;15.40;99.90
19363;DHT22;9817;50.80926400;5.16316200;2023-10-08T06:41:44;15.50;99.90
19363;DHT22;9817;50.80926400;5.16316200;2023-10-08T06:44:12;15.50;99.90
19363;DHT22;9817;50.80926400;5.16316200;2023-10-08T06:46:40;15.60;99.90
19363;DHT22;9817;50.80926400;5.16316200;2023-10-08T06:49:08;15.80;99.90
19363;DHT22;9817;50.80926400;5.16316200;2023-10-08T06:51:41;15.90;99.90
19363;DHT22;9817;50.80926400;5.16316200;2023-10-08T06:54:10;16.00;99.90
19363;DHT22;9817;50.80926400;5.16316200;2023-10-08T06:56:39;16.10;99.90
19363;DHT22;9817;50.80926400;5.16316200;2023-10-08T06:59:08;16.20;99.90
19363;DHT22;9817;50.80926400;5.16316200;2023-10-08T07:01:34;16.30;99.90
19363;DHT22;9817;50.80926400;5.16316200;2023-10-08T07:04:08;16.30;99.90
19363;DHT22;9817;50.80926400;5.16316200;2023-10-08T07:06:38;16.50;99.90
19363;DHT22;9817;50.80926400;5.16316200;2023-10-08T07:09:06;16.60;99.90
19363;DHT22;9817;50.80926400;5.16316200;2023-10-08T07:11:32;16.60;99.90
19363;DHT22;9817;50.80926400;5.16316200;2023-10-08T07:14:05;16.70;99.90
19363;DHT22;9817;50.80926400;5.16316200;2023-10-08T07:16:31;16.80;99.90
19363;DHT22;9817;50.80926400;5.16316200;2023-10-08T07:18:57;17.00;99.90
19363;DHT22;9817;50.80926400;5.16316200;2023-10-08T07:21:41;17.10;99.90
19363;DHT22;9817;50.80926400;5.16316200;2023-10-08T07:24:14;17.30;99.90
19363;DHT22;9817;50.80926400;5.16316200;2023-10-08T07:26:47;17.30;99.90
19363;DHT22;9817;50.80926400;5.16316200;2023-10-08T07:29:14;17.50;99.90
19363;DHT22;9817;50.80926400;5.16316200;2023-10-08T07:31:43;17.50;99.90
19363;DHT22;9817;50.80926400;5.16316200;2023-10-08T07:34:15;17.50;99.90
19363;DHT22;9817;50.80926400;5.16316200;2023-10-08T07:36:42;17.60;99.90
19363;DHT22;9817;50.80926400;5.16316200;2023-10-08T07:39:08;17.70;99.90
19363;DHT22;9817;50.80926400;5.16316200;2023-10-08T07:41:46;17.70;99.90
19363;DHT22;9817;50.80926400;5.16316200;2023-10-08T07:44:13;17.60;99.90
19363;DHT22;9817;50.80926400;5.16316200;2023-10-08T07:46:39;17.70;99.90
19363;DHT22;9817;50.80926400;5.16316200;2023-10-08T07:49:04;17.80;99.90
19363;DHT22;9817;50.80926400;5.16316200;2023-10-08T07:51:31;17.80;99.90
19363;DHT22;9817;50.80926400;5.16316200;2023-10-08T07:53:56;17.90;99.90
19363;DHT22;9817;50.80926400;5.16316200;2023-10-08T07:56:25;18.00;99.90
19363;DHT22;9817;50.80926400;5.16316200;2023-10-08T07:58:52;18.10;99.90
19363;DHT22;9817;50.80926400;5.16316200;2023-10-08T08:01:18;18.20;99.90
19363;DHT22;9817;50.80926400;5.16316200;2023-10-08T08:03:46;18.30;99.90
19363;DHT22;9817;50.80926400;5.16316200;2023-10-08T08:06:14;18.30;99.90
19363;DHT22;9817;50.80926400;5.16316200;2023-10-08T08:08:41;18.50;99.90
19363;DHT22;9817;50.80926400;5.16316200;2023-10-08T08:11:08;18.40;99.90
19363;DHT22;9817;50.80926400;5.16316200;2023-10-08T08:13:43;18.30;99.90
19363;DHT22;9817;50.80926400;5.16316200;2023-10-08T08:16:11;18.40;99.90
19363;DHT22;9817;50.80926400;5.16316200;2023-10-08T08:18:44;18.60;99.90
19363;DHT22;9817;50.80926400;5.16316200;2023-10-08T08:21:11;18.50;99.90
19363;DHT22;9817;50.80926400;5.16316200;2023-10-08T08:23:45;18.90;99.90
19363;DHT22;9817;50.80926400;5.16316200;2023-10-08T08:26:16;19.00;99.90
19363;DHT22;9817;50.80926400;5.16316200;2023-10-08T08:28:59;19.10;99.90
19363;DHT22;9817;50.80926400;5.16316200;2023-10-08T08:31:27;19.10;99.90
19363;DHT22;9817;50.80926400;5.16316200;2023-10-08T08:33:57;19.20;99.90
19363;DHT22;9817;50.80926400;5.16316200;2023-10-08T08:36:31;19.30;99.90
19363;DHT22;9817;50.80926400;5.16316200;2023-10-08T08:38:57;19.30;99.90
19363;DHT22;9817;50.80926400;5.16316200;2023-10-08T08:41:24;19.30;99.90
19363;DHT22;9817;50.80926400;5.16316200;2023-10-08T08:43:54;19.40;99.90
19363;DHT22;9817;50.80926400;5.16316200;2023-10-08T08:46:35;19.40;99.90
19363;DHT22;9817;50.80926400;5.16316200;2023-10-08T08:49:06;19.30;99.90
19363;DHT22;9817;50.80926400;5.16316200;2023-10-08T08:51:37;19.40;99.90
19363;DHT22;9817;50.80926400;5.16316200;2023-10-08T08:54:04;19.50;99.90
19363;DHT22;9817;50.80926400;5.16316200;2023-10-08T08:56:34;19.40;99.90
19363;DHT22;9817;50.80926400;5.16316200;2023-10-08T08:59:01;19.40;99.90
19363;DHT22;9817;50.80926400;5.16316200;2023-10-08T09:01:27;19.50;99.90
19363;DHT22;9817;50.80926400;5.16316200;2023-10-08T09:04:02;19.50;99.90
19363;DHT22;9817;50.80926400;5.16316200;2023-10-08T09:06:32;19.60;99.90
19363;DHT22;9817;50.80926400;5.16316200;2023-10-08T09:09:03;19.50;99.90
19363;DHT22;9817;50.80926400;5.16316200;2023-10-08T09:11:50;19.60;99.90
19363;DHT22;9817;50.80926400;5.16316200;2023-10-08T09:14:22;19.70;99.90
19363;DHT22;9817;50.80926400;5.16316200;2023-10-08T09:16:49;19.90;99.90
19363;DHT22;9817;50.80926400;5.16316200;2023-10-08T09:19:16;20.10;99.90
19363;DHT22;9817;50.80926400;5.16316200;2023-10-08T09:22:04;20.10;99.90
19363;DHT22;9817;50.80926400;5.16316200;2023-10-08T09:24:34;20.20;99.90
19363;DHT22;9817;50.80926400;5.16316200;2023-10-08T09:27:11;20.30;99.90
19363;DHT22;9817;50.80926400;5.16316200;2023-10-08T09:29:40;20.50;99.90
19363;DHT22;9817;50.80926400;5.16316200;2023-10-08T09:32:09;20.50;99.90
19363;DHT22;9817;50.80926400;5.16316200;2023-10-08T09:34:35;20.80;99.90
19363;DHT22;9817;50.80926400;5.16316200;2023-10-08T09:37:01;20.80;99.90
19363;DHT22;9817;50.80926400;5.16316200;2023-10-08T09:39:29;21.00;99.90
19363;DHT22;9817;50.80926400;5.16316200;2023-10-08T09:41:56;21.20;99.90
19363;DHT22;9817;50.80926400;5.16316200;2023-10-08T09:44:24;21.30;99.90
19363;DHT22;9817;50.80926400;5.16316200;2023-10-08T09:47:05;21.40;99.90
19363;DHT22;9817;50.80926400;5.16316200;2023-10-08T09:49:43;21.40;99.90
19363;DHT22;9817;50.80926400;5.16316200;2023-10-08T09:52:11;21.60;99.90
19363;DHT22;9817;50.80926400;5.16316200;2023-10-08T09:57:05;21.80;99.90
19363;DHT22;9817;50.80926400;5.16316200;2023-10-08T09:59:33;21.80;99.90
19363;DHT22;9817;50.80926400;5.16316200;2023-10-08T10:01:59;21.90;99.90
19363;DHT22;9817;50.80926400;5.16316200;2023-10-08T10:04:26;22.00;99.90
19363;DHT22;9817;50.80926400;5.16316200;2023-10-08T10:06:57;22.00;99.90
19363;DHT22;9817;50.80926400;5.16316200;2023-10-08T10:09:26;21.80;99.90
19363;DHT22;9817;50.80926400;5.16316200;2023-10-08T10:11:54;21.70;99.90
19363;DHT22;9817;50.80926400;5.16316200;2023-10-08T10:14:23;21.90;99.90
19363;DHT22;9817;50.80926400;5.16316200;2023-10-08T10:17:28;21.90;99.90
19363;DHT22;9817;50.80926400;5.16316200;2023-10-08T10:20:01;22.20;99.90
19363;DHT22;9817;50.80926400;5.16316200;2023-10-08T10:22:31;22.40;99.90
19363;DHT22;9817;50.80926400;5.16316200;2023-10-08T10:25:02;22.60;99.90
19363;DHT22;9817;50.80926400;5.16316200;2023-10-08T10:30:40;22.90;99.90
19363;DHT22;9817;50.80926400;5.16316200;2023-10-08T10:33:07;23.00;99.90
19363;DHT22;9817;50.80926400;5.16316200;2023-10-08T10:35:35;23.00;99.90
19363;DHT22;9817;50.80926400;5.16316200;2023-10-08T10:38:05;23.30;99.90
19363;DHT22;9817;50.80926400;5.16316200;2023-10-08T10:40:32;23.60;99.90
19363;DHT22;9817;50.80926400;5.16316200;2023-10-08T10:43:07;23.90;99.90
19363;DHT22;9817;50.80926400;5.16316200;2023-10-08T10:45:34;24.00;99.90
19363;DHT22;9817;50.80926400;5.16316200;2023-10-08T10:48:08;24.20;99.90
19363;DHT22;9817;50.80926400;5.16316200;2023-10-08T10:50:49;24.30;99.90
19363;DHT22;9817;50.80926400;5.16316200;2023-10-08T10:53:40;24.40;99.90
19363;DHT22;9817;50.80926400;5.16316200;2023-10-08T10:56:26;24.40;99.90
19363;DHT22;9817;50.80926400;5.16316200;2023-10-08T10:59:02;24.50;99.90
19363;DHT22;9817;50.80926400;5.16316200;2023-10-08T11:01:44;24.20;99.90
19363;DHT22;9817;50.80926400;5.16316200;2023-10-08T11:04:12;24.60;99.90
19363;DHT22;9817;50.80926400;5.16316200;2023-10-08T11:06:46;24.80;99.90
19363;DHT22;9817;50.80926400;5.16316200;2023-10-08T11:09:13;24.70;99.90
19363;DHT22;9817;50.80926400;5.16316200;2023-10-08T11:11:52;24.70;99.90
19363;DHT22;9817;50.80926400;5.16316200;2023-10-08T11:14:20;24.70;99.90
19363;DHT22;9817;50.80926400;5.16316200;2023-10-08T11:16:47;24.80;99.90
19363;DHT22;9817;50.80926400;5.16316200;2023-10-08T11:19:14;24.60;99.90
19363;DHT22;9817;50.80926400;5.16316200;2023-10-08T11:21:53;24.50;99.90
19363;DHT22;9817;50.80926400;5.16316200;2023-10-08T11:24:29;24.60;99.90
19363;DHT22;9817;50.80926400;5.16316200;2023-10-08T11:27:01;24.60;99.90
19363;DHT22;9817;50.80926400;5.16316200;2023-10-08T11:29:52;24.70;99.90
19363;DHT22;9817;50.80926400;5.16316200;2023-10-08T11:32:26;24.80;99.90
19363;DHT22;9817;50.80926400;5.16316200;2023-10-08T11:34:56;24.80;99.90
19363;DHT22;9817;50.80926400;5.16316200;2023-10-08T11:39:54;24.50;99.90
19363;DHT22;9817;50.80926400;5.16316200;2023-10-08T11:42:24;24.50;99.90
19363;DHT22;9817;50.80926400;5.16316200;2023-10-08T11:45:11;24.70;99.90
19363;DHT22;9817;50.80926400;5.16316200;2023-10-08T11:47:53;24.80;99.90
19363;DHT22;9817;50.80926400;5.16316200;2023-10-08T11:50:28;24.70;99.90
19363;DHT22;9817;50.80926400;5.16316200;2023-10-08T11:53:01;24.80;99.90
19363;DHT22;9817;50.80926400;5.16316200;2023-10-08T11:55:32;25.00;99.90
19363;DHT22;9817;50.80926400;5.16316200;2023-10-08T11:58:03;25.00;99.90
19363;DHT22;9817;50.80926400;5.16316200;2023-10-08T12:00:37;24.70;99.90
19363;DHT22;9817;50.80926400;5.16316200;2023-10-08T12:03:13;24.70;99.90
19363;DHT22;9817;50.80926400;5.16316200;2023-10-08T12:05:43;24.70;99.90
19363;DHT22;9817;50.80926400;5.16316200;2023-10-08T12:08:16;24.60;99.90
19363;DHT22;9817;50.80926400;5.16316200;2023-10-08T12:10:45;24.60;99.90
19363;DHT22;9817;50.80926400;5.16316200;2023-10-08T12:13:12;24.60;99.90
19363;DHT22;9817;50.80926400;5.16316200;2023-10-08T12:15:38;24.40;99.90
19363;DHT22;9817;50.80926400;5.16316200;2023-10-08T12:18:04;24.50;99.90
19363;DHT22;9817;50.80926400;5.16316200;2023-10-08T12:20:50;24.60;99.90
19363;DHT22;9817;50.80926400;5.16316200;2023-10-08T12:23:16;24.70;99.90
19363;DHT22;9817;50.80926400;5.16316200;2023-10-08T12:25:54;24.80;99.90
19363;DHT22;9817;50.80926400;5.16316200;2023-10-08T12:28:22;24.70;99.90
19363;DHT22;9817;50.80926400;5.16316200;2023-10-08T12:30:49;24.60;99.90
19363;DHT22;9817;50.80926400;5.16316200;2023-10-08T12:33:24;24.70;99.90
19363;DHT22;9817;50.80926400;5.16316200;2023-10-08T12:35:51;24.90;99.90
19363;DHT22;9817;50.80926400;5.16316200;2023-10-08T12:38:22;25.00;99.90
19363;DHT22;9817;50.80926400;5.16316200;2023-10-08T12:40:51;25.10;99.90
19363;DHT22;9817;50.80926400;5.16316200;2023-10-08T12:43:24;25.00;99.90
19363;DHT22;9817;50.80926400;5.16316200;2023-10-08T12:45:54;25.10;99.90
19363;DHT22;9817;50.80926400;5.16316200;2023-10-08T12:48:25;25.20;99.90
19363;DHT22;9817;50.80926400;5.16316200;2023-10-08T12:50:51;25.20;99.90
19363;DHT22;9817;50.80926400;5.16316200;2023-10-08T12:53:28;25.10;99.90
19363;DHT22;9817;50.80926400;5.16316200;2023-10-08T12:56:08;25.00;99.90
19363;DHT22;9817;50.80926400;5.16316200;2023-10-08T12:58:41;25.00;99.90
19363;DHT22;9817;50.80926400;5.16316200;2023-10-08T13:01:10;25.00;99.90
19363;DHT22;9817;50.80926400;5.16316200;2023-10-08T13:03:39;24.80;99.90
19363;DHT22;9817;50.80926400;5.16316200;2023-10-08T13:06:09;24.70;99.90
19363;DHT22;9817;50.80926400;5.16316200;2023-10-08T13:08:48;24.60;99.90
19363;DHT22;9817;50.80926400;5.16316200;2023-10-08T13:11:13;24.60;99.90
19363;DHT22;9817;50.80926400;5.16316200;2023-10-08T13:13:39;24.80;99.90
19363;DHT22;9817;50.80926400;5.16316200;2023-10-08T13:16:04;24.90;99.90
19363;DHT22;9817;50.80926400;5.16316200;2023-10-08T13:18:33;24.90;99.90
19363;DHT22;9817;50.80926400;5.16316200;2023-10-08T13:20:59;24.90;99.90
19363;DHT22;9817;50.80926400;5.16316200;2023-10-08T13:23:26;25.00;99.90
19363;DHT22;9817;50.80926400;5.16316200;2023-10-08T13:25:52;25.00;99.90
19363;DHT22;9817;50.80926400;5.16316200;2023-10-08T13:28:21;25.20;99.90
19363;DHT22;9817;50.80926400;5.16316200;2023-10-08T13:30:51;25.30;99.90
19363;DHT22;9817;50.80926400;5.16316200;2023-10-08T13:33:23;25.40;99.90
19363;DHT22;9817;50.80926400;5.16316200;2023-10-08T13:35:49;25.20;99.90
19363;DHT22;9817;50.80926400;5.16316200;2023-10-08T13:38:18;25.20;99.90
19363;DHT22;9817;50.80926400;5.16316200;2023-10-08T13:40:49;25.20;99.90
19363;DHT22;9817;50.80926400;5.16316200;2023-10-08T13:43:34;25.00;99.90
19363;DHT22;9817;50.80926400;5.16316200;2023-10-08T13:46:04;24.90;99.90
19363;DHT22;9817;50.80926400;5.16316200;2023-10-08T13:48:34;25.10;99.90
19363;DHT22;9817;50.80926400;5.16316200;2023-10-08T13:51:04;25.10;99.90
19363;DHT22;9817;50.80926400;5.16316200;2023-10-08T13:53:34;24.90;99.90
19363;DHT22;9817;50.80926400;5.16316200;2023-10-08T13:56:02;24.90;99.90
19363;DHT22;9817;50.80926400;5.16316200;2023-10-08T13:58:30;24.90;99.90
19363;DHT22;9817;50.80926400;5.16316200;2023-10-08T14:00:57;24.90;99.90
19363;DHT22;9817;50.80926400;5.16316200;2023-10-08T14:03:29;25.00;99.90
19363;DHT22;9817;50.80926400;5.16316200;2023-10-08T14:05:58;25.00;99.90
19363;DHT22;9817;50.80926400;5.16316200;2023-10-08T14:08:28;25.00;99.90